sensor_id;sensor_type;location;lat;lon;timestamp;temperature;humidity
21570;DHT22;57598;50.888;4.746;2022-09-12T00:01:31;16.70;99.90
21570;DHT22;57598;50.888;4.746;2022-09-12T00:03:59;16.60;99.90
21570;DHT22;57598;50.888;4.746;2022-09-12T00:06:29;16.60;99.90
21570;DHT22;57598;50.888;4.746;2022-09-12T00:08:59;16.60;99.90
21570;DHT22;57598;50.888;4.746;2022-09-12T00:11:26;16.50;99.90
21570;DHT22;57598;50.888;4.746;2022-09-12T00:13:55;16.50;99.90
21570;DHT22;57598;50.888;4.746;2022-09-12T00:16:26;16.50;99.90
21570;DHT22;57598;50.888;4.746;2022-09-12T00:18:54;16.50;99.90
21570;DHT22;57598;50.888;4.746;2022-09-12T00:21:21;16.50;99.90
21570;DHT22;57598;50.888;4.746;2022-09-12T00:23:49;16.50;99.90
21570;DHT22;57598;50.888;4.746;2022-09-12T00:26:17;16.40;99.90
21570;DHT22;57598;50.888;4.746;2022-09-12T00:28:45;16.30;99.90
21570;DHT22;57598;50.888;4.746;2022-09-12T00:31:14;16.20;99.90
21570;DHT22;57598;50.888;4.746;2022-09-12T00:33:43;16.20;99.90
21570;DHT22;57598;50.888;4.746;2022-09-12T00:36:12;16.20;99.90
21570;DHT22;57598;50.888;4.746;2022-09-12T00:38:40;16.20;99.90
21570;DHT22;57598;50.888;4.746;2022-09-12T00:41:13;16.10;99.90
21570;DHT22;57598;50.888;4.746;2022-09-12T00:43:42;16.10;99.90
21570;DHT22;57598;50.888;4.746;2022-09-12T00:49:03;16.10;99.90
21570;DHT22;57598;50.888;4.746;2022-09-12T00:51:33;16.20;99.90
21570;DHT22;57598;50.888;4.746;2022-09-12T00:54:04;16.10;99.90
21570;DHT22;57598;50.888;4.746;2022-09-12T00:56:34;16.10;99.90
21570;DHT22;57598;50.888;4.746;2022-09-12T00:59:06;16.00;99.90
21570;DHT22;57598;50.888;4.746;2022-09-12T01:01:34;16.10;99.90
21570;DHT22;57598;50.888;4.746;2022-09-12T01:04:03;16.00;99.90
21570;DHT22;57598;50.888;4.746;2022-09-12T01:06:34;15.90;99.90
21570;DHT22;57598;50.888;4.746;2022-09-12T01:09:03;15.90;99.90
21570;DHT22;57598;50.888;4.746;2022-09-12T01:11:30;15.90;99.90
21570;DHT22;57598;50.888;4.746;2022-09-12T01:13:58;15.90;99.90
21570;DHT22;57598;50.888;4.746;2022-09-12T01:16:25;16.00;99.90
21570;DHT22;57598;50.888;4.746;2022-09-12T01:19:00;16.00;99.90
21570;DHT22;57598;50.888;4.746;2022-09-12T01:21:43;16.00;99.90
21570;DHT22;57598;50.888;4.746;2022-09-12T01:27:42;15.90;99.90
21570;DHT22;57598;50.888;4.746;2022-09-12T01:30:26;15.90;99.90
21570;DHT22;57598;50.888;4.746;2022-09-12T01:36:10;15.70;99.90
21570;DHT22;57598;50.888;4.746;2022-09-12T01:38:47;15.70;99.90
21570;DHT22;57598;50.888;4.746;2022-09-12T01:41:21;15.60;99.90
21570;DHT22;57598;50.888;4.746;2022-09-12T01:43:53;15.50;99.90
21570;DHT22;57598;50.888;4.746;2022-09-12T01:46:29;15.50;99.90
21570;DHT22;57598;50.888;4.746;2022-09-12T01:49:01;15.60;99.90
21570;DHT22;57598;50.888;4.746;2022-09-12T01:51:36;15.60;99.90
21570;DHT22;57598;50.888;4.746;2022-09-12T01:54:07;15.60;99.90
21570;DHT22;57598;50.888;4.746;2022-09-12T01:56:37;15.60;99.90
21570;DHT22;57598;50.888;4.746;2022-09-12T01:59:12;15.60;99.90
21570;DHT22;57598;50.888;4.746;2022-09-12T02:01:46;15.60;99.90
21570;DHT22;57598;50.888;4.746;2022-09-12T02:04:19;15.60;99.90
21570;DHT22;57598;50.888;4.746;2022-09-12T02:06:51;15.50;99.90
21570;DHT22;57598;50.888;4.746;2022-09-12T02:09:22;15.50;99.90
21570;DHT22;57598;50.888;4.746;2022-09-12T02:11:52;15.50;99.90
21570;DHT22;57598;50.888;4.746;2022-09-12T02:14:24;15.50;99.90
21570;DHT22;57598;50.888;4.746;2022-09-12T02:16:55;15.50;99.90
21570;DHT22;57598;50.888;4.746;2022-09-12T02:19:27;15.50;99.90
21570;DHT22;57598;50.888;4.746;2022-09-12T02:21:58;15.40;99.90
21570;DHT22;57598;50.888;4.746;2022-09-12T02:24:29;15.40;99.90
21570;DHT22;57598;50.888;4.746;2022-09-12T02:27:00;15.40;99.90
21570;DHT22;57598;50.888;4.746;2022-09-12T02:29:29;15.30;99.90
21570;DHT22;57598;50.888;4.746;2022-09-12T02:31:58;15.30;99.90
21570;DHT22;57598;50.888;4.746;2022-09-12T02:34:34;15.30;99.90
21570;DHT22;57598;50.888;4.746;2022-09-12T02:37:11;15.30;99.90
21570;DHT22;57598;50.888;4.746;2022-09-12T02:39:40;15.30;99.90
21570;DHT22;57598;50.888;4.746;2022-09-12T02:42:07;15.10;99.90
21570;DHT22;57598;50.888;4.746;2022-09-12T02:44:37;15.20;99.90
21570;DHT22;57598;50.888;4.746;2022-09-12T02:47:12;15.20;99.90
21570;DHT22;57598;50.888;4.746;2022-09-12T02:49:40;15.30;99.90
21570;DHT22;57598;50.888;4.746;2022-09-12T02:52:08;15.30;99.90
21570;DHT22;57598;50.888;4.746;2022-09-12T02:54:35;15.30;99.90
21570;DHT22;57598;50.888;4.746;2022-09-12T02:57:04;15.20;99.90
21570;DHT22;57598;50.888;4.746;2022-09-12T02:59:31;15.20;99.90
21570;DHT22;57598;50.888;4.746;2022-09-12T03:02:16;15.10;99.90
21570;DHT22;57598;50.888;4.746;2022-09-12T03:04:54;15.20;99.90
21570;DHT22;57598;50.888;4.746;2022-09-12T03:07:36;15.10;99.90
21570;DHT22;57598;50.888;4.746;2022-09-12T03:10:15;15.10;99.90
21570;DHT22;57598;50.888;4.746;2022-09-12T03:12:51;15.10;99.90
21570;DHT22;57598;50.888;4.746;2022-09-12T03:15:31;15.20;99.90
21570;DHT22;57598;50.888;4.746;2022-09-12T03:18:22;15.10;99.90
21570;DHT22;57598;50.888;4.746;2022-09-12T03:20:59;15.10;99.90
21570;DHT22;57598;50.888;4.746;2022-09-12T03:23:31;15.10;99.90
21570;DHT22;57598;50.888;4.746;2022-09-12T03:26:01;15.00;99.90
21570;DHT22;57598;50.888;4.746;2022-09-12T03:28:32;14.80;99.90
21570;DHT22;57598;50.888;4.746;2022-09-12T03:31:00;14.80;99.90
21570;DHT22;57598;50.888;4.746;2022-09-12T03:33:38;14.80;99.90
21570;DHT22;57598;50.888;4.746;2022-09-12T03:36:07;14.80;99.90
21570;DHT22;57598;50.888;4.746;2022-09-12T03:38:36;14.80;99.90
21570;DHT22;57598;50.888;4.746;2022-09-12T03:41:03;14.70;99.90
21570;DHT22;57598;50.888;4.746;2022-09-12T03:43:30;14.80;99.90
21570;DHT22;57598;50.888;4.746;2022-09-12T03:45:57;14.80;99.90
21570;DHT22;57598;50.888;4.746;2022-09-12T03:48:24;14.80;99.90
21570;DHT22;57598;50.888;4.746;2022-09-12T03:50:53;14.80;99.90
21570;DHT22;57598;50.888;4.746;2022-09-12T03:53:19;14.70;99.90
21570;DHT22;57598;50.888;4.746;2022-09-12T03:55:46;14.80;99.90
21570;DHT22;57598;50.888;4.746;2022-09-12T03:58:13;14.80;99.90
21570;DHT22;57598;50.888;4.746;2022-09-12T04:00:40;14.80;99.90
21570;DHT22;57598;50.888;4.746;2022-09-12T04:03:08;14.70;99.90
21570;DHT22;57598;50.888;4.746;2022-09-12T04:05:35;14.60;99.90
21570;DHT22;57598;50.888;4.746;2022-09-12T04:08:04;14.70;99.90
21570;DHT22;57598;50.888;4.746;2022-09-12T04:10:31;14.70;99.90
21570;DHT22;57598;50.888;4.746;2022-09-12T04:12:58;14.60;99.90
21570;DHT22;57598;50.888;4.746;2022-09-12T04:15:25;14.70;99.90
21570;DHT22;57598;50.888;4.746;2022-09-12T04:17:52;14.60;99.90
21570;DHT22;57598;50.888;4.746;2022-09-12T04:20:19;14.50;99.90
21570;DHT22;57598;50.888;4.746;2022-09-12T04:22:45;14.50;99.90
21570;DHT22;57598;50.888;4.746;2022-09-12T04:25:14;14.50;99.90
21570;DHT22;57598;50.888;4.746;2022-09-12T04:27:41;14.50;99.90
21570;DHT22;57598;50.888;4.746;2022-09-12T04:30:09;14.50;99.90
21570;DHT22;57598;50.888;4.746;2022-09-12T04:32:36;14.50;99.90
21570;DHT22;57598;50.888;4.746;2022-09-12T04:35:04;14.40;99.90
21570;DHT22;57598;50.888;4.746;2022-09-12T04:37:31;14.40;99.90
21570;DHT22;57598;50.888;4.746;2022-09-12T04:39:58;14.40;99.90
21570;DHT22;57598;50.888;4.746;2022-09-12T04:42:26;14.40;99.90
21570;DHT22;57598;50.888;4.746;2022-09-12T04:44:53;14.40;99.90
21570;DHT22;57598;50.888;4.746;2022-09-12T04:47:20;14.40;99.90
21570;DHT22;57598;50.888;4.746;2022-09-12T04:49:48;14.30;99.90
21570;DHT22;57598;50.888;4.746;2022-09-12T04:52:15;14.30;99.90
21570;DHT22;57598;50.888;4.746;2022-09-12T04:54:42;14.30;99.90
21570;DHT22;57598;50.888;4.746;2022-09-12T04:57:09;14.30;99.90
21570;DHT22;57598;50.888;4.746;2022-09-12T04:59:38;14.30;99.90
21570;DHT22;57598;50.888;4.746;2022-09-12T05:02:05;14.30;99.90
21570;DHT22;57598;50.888;4.746;2022-09-12T05:04:32;14.20;99.90
21570;DHT22;57598;50.888;4.746;2022-09-12T05:07:00;14.20;99.90
21570;DHT22;57598;50.888;4.746;2022-09-12T05:09:27;14.30;99.90
21570;DHT22;57598;50.888;4.746;2022-09-12T05:11:54;14.30;99.90
21570;DHT22;57598;50.888;4.746;2022-09-12T05:14:21;14.30;99.90
21570;DHT22;57598;50.888;4.746;2022-09-12T05:16:50;14.30;99.90
21570;DHT22;57598;50.888;4.746;2022-09-12T05:19:17;14.40;99.90
21570;DHT22;57598;50.888;4.746;2022-09-12T05:21:44;14.30;99.90
21570;DHT22;57598;50.888;4.746;2022-09-12T05:24:11;14.30;99.90
21570;DHT22;57598;50.888;4.746;2022-09-12T05:26:38;14.20;99.90
21570;DHT22;57598;50.888;4.746;2022-09-12T05:29:05;14.20;99.90
21570;DHT22;57598;50.888;4.746;2022-09-12T05:31:32;14.30;99.90
21570;DHT22;57598;50.888;4.746;2022-09-12T05:34:00;14.30;99.90
21570;DHT22;57598;50.888;4.746;2022-09-12T05:36:29;14.30;99.90
21570;DHT22;57598;50.888;4.746;2022-09-12T05:38:57;14.30;99.90
21570;DHT22;57598;50.888;4.746;2022-09-12T05:41:26;14.40;99.90
21570;DHT22;57598;50.888;4.746;2022-09-12T05:43:55;14.40;99.90
21570;DHT22;57598;50.888;4.746;2022-09-12T05:46:24;14.40;99.90
21570;DHT22;57598;50.888;4.746;2022-09-12T05:48:52;14.30;99.90
21570;DHT22;57598;50.888;4.746;2022-09-12T05:51:23;14.30;99.90
21570;DHT22;57598;50.888;4.746;2022-09-12T05:53:52;14.30;99.90
21570;DHT22;57598;50.888;4.746;2022-09-12T05:56:22;14.30;99.90
21570;DHT22;57598;50.888;4.746;2022-09-12T05:58:53;14.30;99.90
21570;DHT22;57598;50.888;4.746;2022-09-12T06:01:20;14.30;99.90
21570;DHT22;57598;50.888;4.746;2022-09-12T06:03:49;14.20;99.90
21570;DHT22;57598;50.888;4.746;2022-09-12T06:06:17;14.20;99.90
21570;DHT22;57598;50.888;4.746;2022-09-12T06:08:48;14.30;99.90
21570;DHT22;57598;50.888;4.746;2022-09-12T06:11:17;14.30;99.90
21570;DHT22;57598;50.888;4.746;2022-09-12T06:13:45;14.30;99.90
21570;DHT22;57598;50.888;4.746;2022-09-12T06:16:14;14.20;99.90
21570;DHT22;57598;50.888;4.746;2022-09-12T06:18:45;14.20;99.90
21570;DHT22;57598;50.888;4.746;2022-09-12T06:21:12;14.30;99.90
21570;DHT22;57598;50.888;4.746;2022-09-12T06:23:39;14.40;99.90
21570;DHT22;57598;50.888;4.746;2022-09-12T06:26:09;14.30;99.90
21570;DHT22;57598;50.888;4.746;2022-09-12T06:28:38;14.30;99.90
21570;DHT22;57598;50.888;4.746;2022-09-12T06:31:07;14.40;99.90
21570;DHT22;57598;50.888;4.746;2022-09-12T06:33:37;14.40;99.90
21570;DHT22;57598;50.888;4.746;2022-09-12T06:36:06;14.50;99.90
21570;DHT22;57598;50.888;4.746;2022-09-12T06:38:33;14.60;99.90
21570;DHT22;57598;50.888;4.746;2022-09-12T06:41:03;14.70;99.90
21570;DHT22;57598;50.888;4.746;2022-09-12T06:43:33;14.90;99.90
21570;DHT22;57598;50.888;4.746;2022-09-12T06:46:00;15.00;99.90
21570;DHT22;57598;50.888;4.746;2022-09-12T06:48:27;15.20;99.90
21570;DHT22;57598;50.888;4.746;2022-09-12T06:50:56;15.40;99.90
21570;DHT22;57598;50.888;4.746;2022-09-12T06:53:24;15.50;99.90
21570;DHT22;57598;50.888;4.746;2022-09-12T06:55:55;15.50;99.90
21570;DHT22;57598;50.888;4.746;2022-09-12T06:58:22;15.80;99.90
21570;DHT22;57598;50.888;4.746;2022-09-12T07:00:51;16.40;99.90
21570;DHT22;57598;50.888;4.746;2022-09-12T07:03:18;16.90;99.90
21570;DHT22;57598;50.888;4.746;2022-09-12T07:05:45;17.40;99.90
21570;DHT22;57598;50.888;4.746;2022-09-12T07:08:12;17.70;99.90
21570;DHT22;57598;50.888;4.746;2022-09-12T07:10:39;18.10;99.90
21570;DHT22;57598;50.888;4.746;2022-09-12T07:13:06;18.60;99.90
21570;DHT22;57598;50.888;4.746;2022-09-12T07:15:34;19.00;99.90
21570;DHT22;57598;50.888;4.746;2022-09-12T07:18:03;19.40;99.90
21570;DHT22;57598;50.888;4.746;2022-09-12T07:20:30;19.70;99.90
21570;DHT22;57598;50.888;4.746;2022-09-12T07:22:58;20.30;99.90
21570;DHT22;57598;50.888;4.746;2022-09-12T07:25:25;20.60;99.90
21570;DHT22;57598;50.888;4.746;2022-09-12T07:27:52;20.90;99.90
21570;DHT22;57598;50.888;4.746;2022-09-12T07:30:20;21.00;99.90
21570;DHT22;57598;50.888;4.746;2022-09-12T07:32:51;21.10;99.90
21570;DHT22;57598;50.888;4.746;2022-09-12T07:35:20;21.10;99.90
21570;DHT22;57598;50.888;4.746;2022-09-12T07:37:47;21.20;99.90
21570;DHT22;57598;50.888;4.746;2022-09-12T07:40:14;21.30;99.90
21570;DHT22;57598;50.888;4.746;2022-09-12T07:42:41;21.70;99.90
21570;DHT22;57598;50.888;4.746;2022-09-12T07:45:08;22.40;99.90
21570;DHT22;57598;50.888;4.746;2022-09-12T07:47:35;23.20;99.90
21570;DHT22;57598;50.888;4.746;2022-09-12T07:50:03;23.00;99.90
21570;DHT22;57598;50.888;4.746;2022-09-12T07:52:31;23.30;99.90
21570;DHT22;57598;50.888;4.746;2022-09-12T07:54:58;23.40;99.90
21570;DHT22;57598;50.888;4.746;2022-09-12T07:57:25;23.50;99.90
21570;DHT22;57598;50.888;4.746;2022-09-12T07:59:52;23.70;99.90
21570;DHT22;57598;50.888;4.746;2022-09-12T08:02:19;23.80;99.90
21570;DHT22;57598;50.888;4.746;2022-09-12T08:04:46;24.20;99.90
21570;DHT22;57598;50.888;4.746;2022-09-12T08:07:14;24.00;99.90
21570;DHT22;57598;50.888;4.746;2022-09-12T08:09:44;24.00;99.90
21570;DHT22;57598;50.888;4.746;2022-09-12T08:12:11;24.20;99.90
21570;DHT22;57598;50.888;4.746;2022-09-12T08:14:38;24.30;99.90
21570;DHT22;57598;50.888;4.746;2022-09-12T08:17:05;25.30;99.90
21570;DHT22;57598;50.888;4.746;2022-09-12T08:19:32;25.70;99.90
21570;DHT22;57598;50.888;4.746;2022-09-12T08:21:59;25.90;99.90
21570;DHT22;57598;50.888;4.746;2022-09-12T08:24:26;25.70;99.90
21570;DHT22;57598;50.888;4.746;2022-09-12T08:26:55;25.80;99.90
21570;DHT22;57598;50.888;4.746;2022-09-12T08:29:21;25.90;99.90
21570;DHT22;57598;50.888;4.746;2022-09-12T08:31:48;25.70;99.90
21570;DHT22;57598;50.888;4.746;2022-09-12T08:34:15;25.40;99.90
21570;DHT22;57598;50.888;4.746;2022-09-12T08:36:43;25.70;99.90
21570;DHT22;57598;50.888;4.746;2022-09-12T08:39:11;25.90;99.90
21570;DHT22;57598;50.888;4.746;2022-09-12T08:41:40;25.70;99.90
21570;DHT22;57598;50.888;4.746;2022-09-12T08:44:28;26.20;99.90
21570;DHT22;57598;50.888;4.746;2022-09-12T08:47:13;26.40;99.90
21570;DHT22;57598;50.888;4.746;2022-09-12T08:49:54;26.80;99.90
21570;DHT22;57598;50.888;4.746;2022-09-12T08:52:26;26.80;99.90
21570;DHT22;57598;50.888;4.746;2022-09-12T08:54:55;26.50;99.90
21570;DHT22;57598;50.888;4.746;2022-09-12T08:57:23;26.70;99.90
21570;DHT22;57598;50.888;4.746;2022-09-12T08:59:51;25.90;99.90
21570;DHT22;57598;50.888;4.746;2022-09-12T09:05:46;25.90;99.90
21570;DHT22;57598;50.888;4.746;2022-09-12T09:08:34;26.20;99.90
21570;DHT22;57598;50.888;4.746;2022-09-12T09:11:17;26.60;99.90
21570;DHT22;57598;50.888;4.746;2022-09-12T09:13:56;27.30;99.90
21570;DHT22;57598;50.888;4.746;2022-09-12T09:16:46;27.10;98.20
21570;DHT22;57598;50.888;4.746;2022-09-12T09:19:17;26.80;96.80
21570;DHT22;57598;50.888;4.746;2022-09-12T09:21:51;26.40;97.70
21570;DHT22;57598;50.888;4.746;2022-09-12T09:24:25;26.50;97.10
21570;DHT22;57598;50.888;4.746;2022-09-12T09:26:57;27.00;98.10
21570;DHT22;57598;50.888;4.746;2022-09-12T09:29:28;27.90;96.90
21570;DHT22;57598;50.888;4.746;2022-09-12T09:31:59;28.40;96.50
21570;DHT22;57598;50.888;4.746;2022-09-12T09:34:29;28.70;94.50
21570;DHT22;57598;50.888;4.746;2022-09-12T09:37:03;28.50;92.20
21570;DHT22;57598;50.888;4.746;2022-09-12T09:39:46;28.70;92.90
21570;DHT22;57598;50.888;4.746;2022-09-12T09:42:24;29.10;93.40
21570;DHT22;57598;50.888;4.746;2022-09-12T09:44:55;29.10;89.50
21570;DHT22;57598;50.888;4.746;2022-09-12T09:47:26;29.50;92.20
21570;DHT22;57598;50.888;4.746;2022-09-12T09:49:53;29.90;87.30
21570;DHT22;57598;50.888;4.746;2022-09-12T09:52:23;29.30;86.90
21570;DHT22;57598;50.888;4.746;2022-09-12T09:54:56;30.20;90.60
21570;DHT22;57598;50.888;4.746;2022-09-12T09:57:40;30.50;87.50
21570;DHT22;57598;50.888;4.746;2022-09-12T10:00:22;30.60;85.00
21570;DHT22;57598;50.888;4.746;2022-09-12T10:03:03;30.80;87.10
21570;DHT22;57598;50.888;4.746;2022-09-12T10:05:31;30.80;87.40
21570;DHT22;57598;50.888;4.746;2022-09-12T10:07:59;30.90;80.70
21570;DHT22;57598;50.888;4.746;2022-09-12T10:10:26;31.00;82.80
21570;DHT22;57598;50.888;4.746;2022-09-12T10:13:06;31.20;81.70
21570;DHT22;57598;50.888;4.746;2022-09-12T10:15:33;31.30;76.00
21570;DHT22;57598;50.888;4.746;2022-09-12T10:18:02;31.60;82.00
21570;DHT22;57598;50.888;4.746;2022-09-12T10:20:32;31.40;76.60
21570;DHT22;57598;50.888;4.746;2022-09-12T10:23:02;30.80;84.80
21570;DHT22;57598;50.888;4.746;2022-09-12T10:25:30;30.90;75.70
21570;DHT22;57598;50.888;4.746;2022-09-12T10:27:58;31.70;75.20
21570;DHT22;57598;50.888;4.746;2022-09-12T10:30:27;32.10;82.40
21570;DHT22;57598;50.888;4.746;2022-09-12T10:32:58;31.70;72.40
21570;DHT22;57598;50.888;4.746;2022-09-12T10:35:42;31.70;75.90
21570;DHT22;57598;50.888;4.746;2022-09-12T10:38:16;32.30;72.90
21570;DHT22;57598;50.888;4.746;2022-09-12T10:40:54;32.80;68.30
21570;DHT22;57598;50.888;4.746;2022-09-12T10:43:26;32.90;73.70
21570;DHT22;57598;50.888;4.746;2022-09-12T10:45:56;32.80;72.80
21570;DHT22;57598;50.888;4.746;2022-09-12T10:48:27;32.90;67.60
21570;DHT22;57598;50.888;4.746;2022-09-12T10:50:56;33.10;66.70
21570;DHT22;57598;50.888;4.746;2022-09-12T10:53:24;33.00;69.90
21570;DHT22;57598;50.888;4.746;2022-09-12T10:56:04;32.70;71.70
21570;DHT22;57598;50.888;4.746;2022-09-12T10:58:56;32.70;68.80
21570;DHT22;57598;50.888;4.746;2022-09-12T11:01:38;32.70;65.60
21570;DHT22;57598;50.888;4.746;2022-09-12T11:04:18;32.60;71.30
21570;DHT22;57598;50.888;4.746;2022-09-12T11:06:57;33.40;66.40
21570;DHT22;57598;50.888;4.746;2022-09-12T11:09:33;33.30;64.50
21570;DHT22;57598;50.888;4.746;2022-09-12T11:12:07;33.20;67.30
21570;DHT22;57598;50.888;4.746;2022-09-12T11:14:54;33.40;67.50
21570;DHT22;57598;50.888;4.746;2022-09-12T11:17:33;33.30;66.20
21570;DHT22;57598;50.888;4.746;2022-09-12T11:20:20;33.60;63.50
21570;DHT22;57598;50.888;4.746;2022-09-12T11:23:27;33.60;66.10
21570;DHT22;57598;50.888;4.746;2022-09-12T11:26:01;34.10;61.00
21570;DHT22;57598;50.888;4.746;2022-09-12T11:28:36;34.80;62.90
21570;DHT22;57598;50.888;4.746;2022-09-12T11:31:26;34.80;62.20
21570;DHT22;57598;50.888;4.746;2022-09-12T11:33:59;34.40;62.10
21570;DHT22;57598;50.888;4.746;2022-09-12T11:36:32;34.30;62.50
21570;DHT22;57598;50.888;4.746;2022-09-12T11:39:12;34.30;59.50
21570;DHT22;57598;50.888;4.746;2022-09-12T11:41:41;34.00;60.10
21570;DHT22;57598;50.888;4.746;2022-09-12T11:44:16;33.90;57.20
21570;DHT22;57598;50.888;4.746;2022-09-12T11:46:45;33.60;58.70
21570;DHT22;57598;50.888;4.746;2022-09-12T11:49:18;33.80;59.70
21570;DHT22;57598;50.888;4.746;2022-09-12T11:51:51;34.80;60.00
21570;DHT22;57598;50.888;4.746;2022-09-12T11:54:25;34.40;59.60
21570;DHT22;57598;50.888;4.746;2022-09-12T11:57:01;34.80;59.40
21570;DHT22;57598;50.888;4.746;2022-09-12T11:59:34;35.90;58.10
21570;DHT22;57598;50.888;4.746;2022-09-12T12:02:11;35.50;56.80
21570;DHT22;57598;50.888;4.746;2022-09-12T12:04:42;35.70;56.70
21570;DHT22;57598;50.888;4.746;2022-09-12T12:07:10;36.00;57.80
21570;DHT22;57598;50.888;4.746;2022-09-12T12:09:46;35.30;54.50
21570;DHT22;57598;50.888;4.746;2022-09-12T12:12:18;34.50;55.80
21570;DHT22;57598;50.888;4.746;2022-09-12T12:14:48;34.30;59.00
21570;DHT22;57598;50.888;4.746;2022-09-12T12:17:18;34.30;57.50
21570;DHT22;57598;50.888;4.746;2022-09-12T12:19:54;34.00;56.80
21570;DHT22;57598;50.888;4.746;2022-09-12T12:22:23;33.80;59.70
21570;DHT22;57598;50.888;4.746;2022-09-12T12:25:05;34.30;55.20
21570;DHT22;57598;50.888;4.746;2022-09-12T12:27:50;34.40;58.40
21570;DHT22;57598;50.888;4.746;2022-09-12T12:36:37;34.80;57.20
21570;DHT22;57598;50.888;4.746;2022-09-12T12:46:04;33.80;54.60
21570;DHT22;57598;50.888;4.746;2022-09-12T12:49:08;34.10;56.40
21570;DHT22;57598;50.888;4.746;2022-09-12T12:51:54;34.70;53.50
21570;DHT22;57598;50.888;4.746;2022-09-12T12:54:30;34.10;55.90
21570;DHT22;57598;50.888;4.746;2022-09-12T12:57:03;34.40;53.10
21570;DHT22;57598;50.888;4.746;2022-09-12T12:59:31;34.00;53.00
21570;DHT22;57598;50.888;4.746;2022-09-12T13:02:00;34.30;53.60
21570;DHT22;57598;50.888;4.746;2022-09-12T13:04:29;34.00;54.00
21570;DHT22;57598;50.888;4.746;2022-09-12T13:07:00;34.30;55.80
21570;DHT22;57598;50.888;4.746;2022-09-12T13:09:29;34.10;55.50
21570;DHT22;57598;50.888;4.746;2022-09-12T13:12:00;34.70;52.10
21570;DHT22;57598;50.888;4.746;2022-09-12T13:14:46;34.50;52.50
21570;DHT22;57598;50.888;4.746;2022-09-12T13:17:19;34.10;54.60
21570;DHT22;57598;50.888;4.746;2022-09-12T13:19:47;34.00;54.90
21570;DHT22;57598;50.888;4.746;2022-09-12T13:22:15;34.00;53.60
21570;DHT22;57598;50.888;4.746;2022-09-12T13:24:43;33.40;56.20
21570;DHT22;57598;50.888;4.746;2022-09-12T13:27:17;32.90;54.50
21570;DHT22;57598;50.888;4.746;2022-09-12T13:29:45;32.70;55.10
21570;DHT22;57598;50.888;4.746;2022-09-12T13:32:12;32.80;57.40
21570;DHT22;57598;50.888;4.746;2022-09-12T13:34:56;32.80;57.70
21570;DHT22;57598;50.888;4.746;2022-09-12T13:37:42;32.80;55.00
21570;DHT22;57598;50.888;4.746;2022-09-12T13:40:26;33.10;55.30
21570;DHT22;57598;50.888;4.746;2022-09-12T13:43:08;33.10;55.50
21570;DHT22;57598;50.888;4.746;2022-09-12T13:45:38;32.80;55.20
21570;DHT22;57598;50.888;4.746;2022-09-12T13:48:09;32.70;54.20
21570;DHT22;57598;50.888;4.746;2022-09-12T13:50:41;32.80;54.70
21570;DHT22;57598;50.888;4.746;2022-09-12T13:53:14;33.40;53.00
21570;DHT22;57598;50.888;4.746;2022-09-12T13:55:45;33.50;53.10
21570;DHT22;57598;50.888;4.746;2022-09-12T13:58:20;33.50;56.40
21570;DHT22;57598;50.888;4.746;2022-09-12T14:01:00;33.80;53.40
21570;DHT22;57598;50.888;4.746;2022-09-12T14:03:29;33.50;54.70
21570;DHT22;57598;50.888;4.746;2022-09-12T14:06:16;33.10;54.70
21570;DHT22;57598;50.888;4.746;2022-09-12T14:08:44;33.10;53.80
21570;DHT22;57598;50.888;4.746;2022-09-12T14:11:20;32.80;54.40
21570;DHT22;57598;50.888;4.746;2022-09-12T14:13:49;32.80;55.80
21570;DHT22;57598;50.888;4.746;2022-09-12T14:16:17;32.80;56.40
21570;DHT22;57598;50.888;4.746;2022-09-12T14:18:46;33.10;54.90
21570;DHT22;57598;50.888;4.746;2022-09-12T14:21:31;32.70;56.30
21570;DHT22;57598;50.888;4.746;2022-09-12T14:24:00;32.80;56.20
21570;DHT22;57598;50.888;4.746;2022-09-12T14:26:32;32.70;54.80
21570;DHT22;57598;50.888;4.746;2022-09-12T14:29:00;32.90;55.00
21570;DHT22;57598;50.888;4.746;2022-09-12T14:31:29;32.20;55.80
21570;DHT22;57598;50.888;4.746;2022-09-12T14:34:08;32.10;57.70
21570;DHT22;57598;50.888;4.746;2022-09-12T14:36:43;32.40;56.30
21570;DHT22;57598;50.888;4.746;2022-09-12T14:39:21;32.40;58.50
21570;DHT22;57598;50.888;4.746;2022-09-12T14:41:50;33.00;55.50
21570;DHT22;57598;50.888;4.746;2022-09-12T14:44:27;32.90;56.00
21570;DHT22;57598;50.888;4.746;2022-09-12T14:46:58;32.70;54.00
21570;DHT22;57598;50.888;4.746;2022-09-12T14:49:30;32.40;55.20
21570;DHT22;57598;50.888;4.746;2022-09-12T14:52:00;32.40;55.00
21570;DHT22;57598;50.888;4.746;2022-09-12T14:54:37;32.30;56.00
21570;DHT22;57598;50.888;4.746;2022-09-12T14:57:31;32.50;55.00
21570;DHT22;57598;50.888;4.746;2022-09-12T15:00:15;32.00;54.80
21570;DHT22;57598;50.888;4.746;2022-09-12T15:02:45;31.40;55.80
21570;DHT22;57598;50.888;4.746;2022-09-12T15:05:21;31.90;57.70
21570;DHT22;57598;50.888;4.746;2022-09-12T15:07:58;32.50;55.70
21570;DHT22;57598;50.888;4.746;2022-09-12T15:10:28;32.50;55.00
21570;DHT22;57598;50.888;4.746;2022-09-12T15:13:17;32.40;56.70
21570;DHT22;57598;50.888;4.746;2022-09-12T15:15:46;32.80;55.30
21570;DHT22;57598;50.888;4.746;2022-09-12T15:18:13;32.20;55.50
21570;DHT22;57598;50.888;4.746;2022-09-12T15:20:42;32.10;54.20
21570;DHT22;57598;50.888;4.746;2022-09-12T15:23:17;31.80;58.40
21570;DHT22;57598;50.888;4.746;2022-09-12T15:25:44;31.40;54.90
21570;DHT22;57598;50.888;4.746;2022-09-12T15:28:15;31.50;55.20
21570;DHT22;57598;50.888;4.746;2022-09-12T15:30:43;31.60;56.20
21570;DHT22;57598;50.888;4.746;2022-09-12T15:33:11;31.80;54.90
21570;DHT22;57598;50.888;4.746;2022-09-12T15:35:37;31.90;53.60
21570;DHT22;57598;50.888;4.746;2022-09-12T15:38:05;31.80;53.30
21570;DHT22;57598;50.888;4.746;2022-09-12T15:40:33;31.50;55.40
21570;DHT22;57598;50.888;4.746;2022-09-12T15:43:00;32.10;52.90
21570;DHT22;57598;50.888;4.746;2022-09-12T15:45:29;32.70;52.70
21570;DHT22;57598;50.888;4.746;2022-09-12T15:47:57;32.90;52.80
21570;DHT22;57598;50.888;4.746;2022-09-12T15:50:24;32.80;54.20
21570;DHT22;57598;50.888;4.746;2022-09-12T15:52:53;32.60;51.70
21570;DHT22;57598;50.888;4.746;2022-09-12T15:55:22;31.80;53.30
21570;DHT22;57598;50.888;4.746;2022-09-12T15:57:51;30.60;54.80
21570;DHT22;57598;50.888;4.746;2022-09-12T16:00:18;30.00;56.20
21570;DHT22;57598;50.888;4.746;2022-09-12T16:02:46;29.40;56.50
21570;DHT22;57598;50.888;4.746;2022-09-12T16:05:17;29.10;56.80
21570;DHT22;57598;50.888;4.746;2022-09-12T16:07:44;28.80;57.40
21570;DHT22;57598;50.888;4.746;2022-09-12T16:10:14;28.80;57.70
21570;DHT22;57598;50.888;4.746;2022-09-12T16:12:42;28.90;57.60
21570;DHT22;57598;50.888;4.746;2022-09-12T16:15:14;28.70;58.20
21570;DHT22;57598;50.888;4.746;2022-09-12T16:17:42;28.70;58.60
21570;DHT22;57598;50.888;4.746;2022-09-12T16:20:10;28.80;58.50
21570;DHT22;57598;50.888;4.746;2022-09-12T16:22:37;28.80;58.60